Time;durP1;ratioP1;P1;durP2;ratioP2;P2;SDS_P1;SDS_P2;PMS_P1;PMS_P2;Temp;Humidity;BMP_temperature;BMP_pressure;BME280_temperature;BME280_humidity;BME280_pressure;Samples;Min_cycle;Max_cycle;Signal;HPM_P1;HPM_P2
2022/10/03 00:02:38;;;;;;;100.53;33.63;;;13.30;99.90;;;;;;5074148;28;20033;-54
2022/10/03 00:05:30;;;;;;;92.30;32.65;;;13.40;99.90;;;;;;5074425;28;20029;-54
2022/10/03 00:07:58;;;;;;;60.92;22.95;;;13.50;99.90;;;;;;5074368;28;20035;-54
2022/10/03 00:10:27;;;;;;;39.50;16.85;;;13.50;99.90;;;;;;5074526;28;20024;-54
2022/10/03 00:13:19;;;;;;;34.92;16.65;;;13.50;99.90;;;;;;5074057;28;20314;-54
2022/10/03 00:15:54;;;;;;;41.33;17.83;;;13.50;99.90;;;;;;5074536;28;20056;-54
2022/10/03 00:18:34;;;;;;;34.65;15.75;;;13.50;99.90;;;;;;5074349;28;20028;-54
2022/10/03 00:21:20;;;;;;;32.50;15.95;;;13.50;99.90;;;;;;5074303;28;20537;-54
2022/10/03 00:24:13;;;;;;;29.63;15.60;;;13.50;99.90;;;;;;5074202;28;20024;-54
2022/10/03 00:26:54;;;;;;;26.48;14.65;;;13.50;99.90;;;;;;5056217;28;20478;-54
2022/10/03 00:29:38;;;;;;;29.20;16.08;;;13.60;99.90;;;;;;5058256;28;20032;-54
2022/10/03 00:32:22;;;;;;;36.80;16.75;;;13.70;99.90;;;;;;5058287;28;20029;-54
2022/10/03 00:35:22;;;;;;;30.70;17.02;;;13.90;99.90;;;;;;5058150;28;20025;-54
2022/10/03 00:38:38;;;;;;;28.17;15.50;;;13.90;99.90;;;;;;5058170;28;20029;-54
2022/10/03 00:41:16;;;;;;;26.92;14.57;;;13.90;99.90;;;;;;5032069;28;20075;-54
2022/10/03 00:44:09;;;;;;;24.60;13.55;;;13.80;99.90;;;;;;5058101;28;20029;-54
2022/10/03 00:47:18;;;;;;;31.42;15.73;;;13.90;99.90;;;;;;5073564;28;20039;-54
2022/10/03 00:50:14;;;;;;;27.50;13.13;;;13.90;99.90;;;;;;5077828;28;20127;-54
2022/10/03 00:53:06;;;;;;;27.27;13.95;;;13.90;99.90;;;;;;5077880;28;20109;-54
2022/10/03 00:55:44;;;;;;;32.08;15.15;;;14.00;99.90;;;;;;5077790;28;20033;-54
2022/10/03 00:58:24;;;;;;;27.70;14.27;;;13.90;99.90;;;;;;5077790;28;20403;-54
2022/10/03 01:00:53;;;;;;;28.48;14.15;;;13.90;99.90;;;;;;5077841;28;20067;-54
2022/10/03 01:03:32;;;;;;;29.45;13.95;;;13.90;99.90;;;;;;5077610;28;20546;-54
2022/10/03 01:06:30;;;;;;;27.08;14.55;;;13.90;99.90;;;;;;5077518;28;20584;-54
2022/10/03 01:09:30;;;;;;;26.73;13.63;;;13.80;99.90;;;;;;5077371;28;20040;-54
2022/10/03 01:12:14;;;;;;;27.35;14.70;;;13.80;99.90;;;;;;5077770;28;20442;-54
2022/10/03 01:15:21;;;;;;;31.70;15.63;;;14.00;99.90;;;;;;5077591;28;20039;-54
2022/10/03 01:18:09;;;;;;;27.45;14.32;;;14.00;99.90;;;;;;5047525;28;20123;-54
2022/10/03 01:20:42;;;;;;;29.77;14.68;;;14.00;99.90;;;;;;5077332;28;20082;-54
2022/10/03 01:23:26;;;;;;;25.60;13.88;;;14.00;99.90;;;;;;5077258;28;20540;-54
2022/10/03 01:26:20;;;;;;;26.90;13.68;;;14.00;99.90;;;;;;5094219;28;20110;-54
2022/10/03 01:31:58;;;;;;;30.33;15.05;;;13.90;99.90;;;;;;5097430;28;20444;-54
2022/10/03 01:34:41;;;;;;;27.90;14.88;;;13.90;99.90;;;;;;5097548;28;20028;-54
2022/10/03 01:37:22;;;;;;;34.08;16.70;;;13.90;99.90;;;;;;5096840;28;20062;-54
2022/10/03 01:40:07;;;;;;;29.42;15.65;;;14.00;99.90;;;;;;5097336;28;20032;-54
2022/10/03 01:43:00;;;;;;;31.75;16.83;;;14.20;99.90;;;;;;5097237;28;20024;-54
2022/10/03 01:45:36;;;;;;;29.85;15.60;;;14.10;99.90;;;;;;5090993;28;20024;-54
2022/10/03 01:48:33;;;;;;;28.45;13.40;;;14.10;99.90;;;;;;5076797;28;20037;-54
2022/10/03 01:51:06;;;;;;;22.02;12.27;;;14.10;99.90;;;;;;5077012;28;20028;-54
2022/10/03 01:54:10;;;;;;;18.33;11.93;;;14.10;99.90;;;;;;5076733;28;20032;-54
2022/10/03 01:56:57;;;;;;;24.23;12.52;;;14.20;99.90;;;;;;5076763;28;20051;-54
2022/10/03 01:59:36;;;;;;;18.73;11.70;;;14.20;99.90;;;;;;5076715;28;20029;-54
2022/10/03 02:02:28;;;;;;;25.48;12.98;;;14.10;99.90;;;;;;5076732;28;20462;-54
2022/10/03 02:05:02;;;;;;;25.63;12.38;;;14.10;99.90;;;;;;5045981;28;20075;-54
2022/10/03 02:07:50;;;;;;;22.33;11.77;;;14.10;99.90;;;;;;5076383;28;20028;-54
2022/10/03 02:10:43;;;;;;;24.08;12.95;;;14.10;99.90;;;;;;5076565;28;20021;-54
2022/10/03 02:13:18;;;;;;;27.58;13.90;;;14.10;99.90;;;;;;5076311;28;20043;-54
2022/10/03 02:16:03;;;;;;;22.88;12.60;;;14.00;99.90;;;;;;5076334;28;20082;-54
2022/10/03 02:18:53;;;;;;;22.77;12.05;;;14.00;99.90;;;;;;5076501;28;20028;-54
2022/10/03 02:21:26;;;;;;;27.23;12.90;;;14.00;99.90;;;;;;5076217;28;20533;-54
2022/10/03 02:24:20;;;;;;;26.25;13.20;;;14.20;99.90;;;;;;5076248;28;20276;-54
2022/10/03 02:27:11;;;;;;;25.83;12.90;;;14.20;99.90;;;;;;5096485;28;20035;-54
2022/10/03 02:29:50;;;;;;;;;;;14.20;99.90;;;;;;5096975;28;20575;-54
2022/10/03 02:32:26;;;;;;;26.83;11.27;;;14.20;99.90;;;;;;5096319;28;19915;-54
2022/10/03 02:35:09;;;;;;;21.90;12.30;;;14.20;99.90;;;;;;5096261;28;20489;-54
2022/10/03 02:37:45;;;;;;;21.30;11.63;;;14.30;99.90;;;;;;5096057;28;20466;-54
2022/10/03 02:40:21;;;;;;;23.23;11.40;;;14.20;99.90;;;;;;5096337;28;20374;-54
2022/10/03 02:43:24;;;;;;;24.25;11.82;;;14.20;99.90;;;;;;5096026;28;20027;-54
2022/10/03 02:46:08;;;;;;;22.90;11.48;;;14.20;99.90;;;;;;5086498;28;20038;-54
2022/10/03 02:48:53;;;;;;;21.17;11.98;;;14.20;99.90;;;;;;5075504;28;20486;-54
2022/10/03 02:51:25;;;;;;;17.33;10.25;;;14.10;99.90;;;;;;5075698;28;20033;-54
2022/10/03 02:54:28;;;;;;;21.48;11.20;;;14.20;99.90;;;;;;5075671;28;20052;-54
2022/10/03 02:57:31;;;;;;;18.90;9.45;;;14.20;99.90;;;;;;5075590;28;20024;-54
2022/10/03 03:00:12;;;;;;;15.95;9.25;;;14.20;99.90;;;;;;5075595;28;20443;-54
2022/10/03 03:03:00;;;;;;;21.88;10.20;;;14.30;99.90;;;;;;5075471;28;20028;-54
2022/10/03 03:06:03;;;;;;;15.88;8.45;;;14.30;99.90;;;;;;5035068;28;20059;-55
2022/10/03 03:09:06;;;;;;;13.45;6.95;;;14.20;99.90;;;;;;5075328;28;20020;-55
2022/10/03 03:12:09;;;;;;;15.77;6.80;;;14.30;99.90;;;;;;5075268;28;20104;-55
2022/10/03 03:14:56;;;;;;;12.60;6.57;;;14.30;99.90;;;;;;5035373;28;20415;-55
2022/10/03 03:17:49;;;;;;;16.33;6.65;;;14.40;99.90;;;;;;5035298;28;20026;-54
2022/10/03 03:20:51;;;;;;;12.82;6.30;;;14.40;99.90;;;;;;5035168;28;20089;-54
2022/10/03 03:23:45;;;;;;;11.77;6.18;;;14.40;99.90;;;;;;5035162;28;20057;-55
2022/10/03 03:26:14;;;;;;;8.55;4.75;;;14.50;99.90;;;;;;5054317;28;20035;-55
2022/10/03 03:28:47;;;;;;;8.90;4.97;;;14.60;99.90;;;;;;5054971;28;20113;-54
2022/10/03 03:31:23;;;;;;;11.48;5.30;;;14.60;99.90;;;;;;5054856;28;20382;-55
2022/10/03 03:34:01;;;;;;;5.60;4.35;;;14.50;99.90;;;;;;5055242;28;20036;-55
2022/10/03 03:36:42;;;;;;;8.38;4.43;;;14.50;99.90;;;;;;5054877;28;20021;-55
2022/10/03 03:39:47;;;;;;;8.70;4.22;;;14.40;99.90;;;;;;5054684;28;20372;-55
2022/10/03 03:42:32;;;;;;;4.95;3.92;;;14.30;99.90;;;;;;5054736;28;20403;-55
2022/10/03 03:45:10;;;;;;;7.30;3.88;;;14.30;99.90;;;;;;5052333;28;20036;-55
2022/10/03 03:48:15;;;;;;;6.63;4.18;;;14.20;99.90;;;;;;5034711;28;20028;-55
2022/10/03 03:50:58;;;;;;;6.93;3.67;;;14.30;99.90;;;;;;5023304;28;20044;-55
2022/10/03 03:53:58;;;;;;;6.40;3.80;;;14.20;99.90;;;;;;5034460;28;20033;-55
2022/10/03 03:57:03;;;;;;;5.25;3.10;;;14.10;99.90;;;;;;5034722;28;20025;-54
2022/10/03 04:00:03;;;;;;;5.53;3.13;;;14.20;99.90;;;;;;5034299;28;20041;-54
2022/10/03 04:02:41;;;;;;;;;;;14.10;99.90;;;;;;5034654;28;20040;-55
2022/10/03 04:05:19;;;;;;;9.38;2.90;;;14.10;99.90;;;;;;5034482;28;20389;-55
2022/10/03 04:07:58;;;;;;;3.90;2.38;;;14.20;99.90;;;;;;5034533;28;20033;-55
2022/10/03 04:10:59;;;;;;;4.75;2.85;;;14.10;99.90;;;;;;5034369;28;20045;-55
2022/10/03 04:13:46;;;;;;;4.90;2.85;;;14.00;99.90;;;;;;5064681;28;20482;-55
2022/10/03 04:19:17;;;;;;;5.45;4.03;;;14.10;99.90;;;;;;5074384;28;20081;-54
2022/10/03 04:22:10;;;;;;;5.55;3.80;;;14.00;99.90;;;;;;5074177;28;20108;-55
2022/10/03 04:25:00;;;;;;;7.53;3.60;;;14.10;99.90;;;;;;5080512;28;20131;-55
2022/10/03 04:28:09;;;;;;;5.90;4.00;;;14.10;99.90;;;;;;5094491;28;20043;-55
2022/10/03 04:31:04;;;;;;;5.03;3.70;;;14.10;99.90;;;;;;5063158;28;20405;-54
2022/10/03 04:33:58;;;;;;;7.90;4.07;;;14.00;99.90;;;;;;5088690;28;20035;-54
2022/10/03 04:36:42;;;;;;;9.30;3.83;;;14.00;99.90;;;;;;5094424;28;20047;-54
2022/10/03 04:39:38;;;;;;;8.20;4.18;;;13.90;99.90;;;;;;5094233;28;20028;-54
2022/10/03 04:42:26;;;;;;;6.18;3.65;;;13.80;99.90;;;;;;5094182;28;20024;-54
2022/10/03 04:45:37;;;;;;;7.03;4.20;;;13.70;99.90;;;;;;5092794;28;20103;-54
2022/10/03 04:48:32;;;;;;;8.45;4.18;;;13.80;99.90;;;;;;5054088;28;20056;-55
2022/10/03 04:51:14;;;;;;;10.15;4.18;;;13.80;99.90;;;;;;5073927;28;20394;-54
2022/10/03 04:53:57;;;;;;;5.25;4.45;;;13.80;99.90;;;;;;5074195;28;20036;-55
2022/10/03 04:56:25;;;;;;;5.88;4.22;;;13.70;99.90;;;;;;5073982;28;20104;-55
2022/10/03 04:58:59;;;;;;;6.78;4.43;;;13.80;99.90;;;;;;5073915;28;20032;-55
2022/10/03 05:01:54;;;;;;;8.90;5.20;;;13.70;99.90;;;;;;5073978;28;20033;-54
2022/10/03 05:04:41;;;;;;;13.90;5.57;;;13.80;99.90;;;;;;5056357;28;20075;-54
2022/10/03 05:07:25;;;;;;;13.20;5.68;;;13.80;99.90;;;;;;5073935;28;20028;-55
2022/10/03 05:09:57;;;;;;;12.40;6.13;;;13.80;99.90;;;;;;5073818;28;20056;-55
2022/10/03 05:12:59;;;;;;;14.82;7.65;;;13.90;99.90;;;;;;5073748;28;20123;-55
2022/10/03 05:16:06;;;;;;;20.35;7.93;;;13.90;99.90;;;;;;5077466;28;20389;-54
2022/10/03 05:18:48;;;;;;;18.63;8.55;;;14.00;99.90;;;;;;5006663;28;20120;-54
2022/10/03 05:21:29;;;;;;;15.82;7.38;;;14.00;99.90;;;;;;5068167;28;20047;-54
2022/10/03 05:24:14;;;;;;;16.92;8.70;;;14.00;99.90;;;;;;5078576;28;20498;-55
2022/10/03 05:27:11;;;;;;;13.65;8.20;;;14.00;99.90;;;;;;5070326;28;20028;-54
2022/10/03 05:30:15;;;;;;;13.90;9.88;;;14.20;99.90;;;;;;5064732;28;20393;-55
2022/10/03 05:32:49;;;;;;;24.42;12.57;;;14.10;99.90;;;;;;5069301;28;20425;-54
2022/10/03 05:35:24;;;;;;;27.25;13.55;;;14.10;99.90;;;;;;5076749;28;20029;-54
2022/10/03 05:37:56;;;;;;;22.90;12.35;;;14.10;99.90;;;;;;5065818;28;20412;-54
2022/10/03 05:40:27;;;;;;;26.60;14.10;;;14.10;99.90;;;;;;5070753;28;20033;-55
2022/10/03 05:43:25;;;;;;;30.30;14.65;;;14.20;99.90;;;;;;5064145;28;20066;-54
2022/10/03 05:46:01;;;;;;;26.67;14.02;;;14.00;99.90;;;;;;5048961;28;20045;-54
2022/10/03 05:48:43;;;;;;;32.33;16.30;;;14.00;99.90;;;;;;5074866;28;20028;-55
2022/10/03 05:51:38;;;;;;;39.35;17.52;;;14.10;99.90;;;;;;5075339;28;20028;-54
2022/10/03 05:54:06;;;;;;;33.20;17.25;;;14.20;99.90;;;;;;5074693;28;20028;-54
2022/10/03 05:57:00;;;;;;;31.75;17.30;;;14.20;99.90;;;;;;5076354;28;20029;-54
2022/10/03 05:59:44;;;;;;;34.92;17.83;;;14.30;99.90;;;;;;5071955;28;20036;-54
2022/10/03 06:03:03;;;;;;;35.03;19.05;;;14.40;99.90;;;;;;5067156;28;20029;-54
2022/10/03 06:05:34;;;;;;;31.60;17.92;;;14.60;99.90;;;;;;5023835;28;20021;-54
2022/10/03 06:08:13;;;;;;;;;;;14.70;99.90;;;;;;5070754;28;20051;-54
2022/10/03 06:11:07;;;;;;;26.80;16.33;;;14.70;99.90;;;;;;5070500;28;19974;-55
2022/10/03 06:14:06;;;;;;;23.08;13.88;;;14.80;99.90;;;;;;5073603;28;20068;-54
2022/10/03 06:16:54;;;;;;;27.65;14.32;;;14.90;99.90;;;;;;5073981;28;20092;-54
2022/10/03 06:19:55;;;;;;;29.08;15.32;;;15.10;99.90;;;;;;5075616;28;20036;-54
2022/10/03 06:22:53;;;;;;;28.00;14.35;;;15.30;99.90;;;;;;5032661;28;20486;-54
2022/10/03 06:25:35;;;;;;;30.83;16.58;;;15.80;99.90;;;;;;5043797;28;20123;-54
2022/10/03 06:28:29;;;;;;;30.60;17.58;;;16.30;99.90;;;;;;5095915;28;20545;-54
2022/10/03 06:31:39;;;;;;;32.85;16.58;;;16.60;99.90;;;;;;5095083;28;20024;-54
2022/10/03 06:34:30;;;;;;;31.10;15.03;;;17.10;99.90;;;;;;5057408;28;20143;-54
2022/10/03 06:37:18;;;;;;;32.47;16.00;;;17.60;99.90;;;;;;5085630;28;20074;-54
2022/10/03 06:39:53;;;;;;;26.88;13.70;;;18.40;99.90;;;;;;5075430;28;20530;-54
2022/10/03 06:42:25;;;;;;;25.17;12.82;;;18.70;99.90;;;;;;5066371;28;20021;-54
2022/10/03 06:45:36;;;;;;;21.30;9.88;;;18.90;99.90;;;;;;5066990;28;20074;-54
2022/10/03 06:48:18;;;;;;;13.77;6.90;;;18.90;99.90;;;;;;5075098;28;20060;-54
2022/10/03 06:50:45;;;;;;;14.90;5.93;;;19.00;99.90;;;;;;5071335;28;20134;-54
2022/10/03 06:53:38;;;;;;;7.07;4.20;;;19.30;99.90;;;;;;5075227;28;20070;-55
2022/10/03 06:56:06;;;;;;;10.65;4.32;;;19.40;99.90;;;;;;5074863;28;20094;-54
2022/10/03 06:58:35;;;;;;;7.57;3.35;;;19.30;99.90;;;;;;5074660;28;20063;-55
2022/10/03 07:01:20;;;;;;;11.98;3.47;;;19.20;99.90;;;;;;5073570;28;20028;-55
2022/10/03 07:04:23;;;;;;;28.05;6.50;;;19.40;99.90;;;;;;5074069;28;20020;-55
2022/10/03 07:07:29;;;;;;;15.50;3.60;;;19.50;99.90;;;;;;5074898;28;20442;-55
2022/10/03 07:10:28;;;;;;;15.48;4.07;;;19.20;99.90;;;;;;5074522;28;20119;-55
2022/10/03 07:13:31;;;;;;;11.60;3.50;;;19.20;99.90;;;;;;5071663;28;20048;-56
2022/10/03 07:16:27;;;;;;;14.68;4.38;;;19.50;99.90;;;;;;5074369;28;20037;-55
2022/10/03 07:19:27;;;;;;;9.20;3.22;;;19.70;99.90;;;;;;5074844;28;20025;-55
2022/10/03 07:22:06;;;;;;;12.88;3.72;;;19.80;99.90;;;;;;5068645;28;20029;-55
2022/10/03 07:25:07;;;;;;;16.73;5.05;;;19.80;99.10;;;;;;5069699;28;20021;-55
2022/10/03 07:28:08;;;;;;;23.67;5.05;;;19.80;97.90;;;;;;5064923;28;20064;-55
2022/10/03 07:31:11;;;;;;;8.02;1.70;;;19.70;99.50;;;;;;5058023;28;20017;-55
2022/10/03 07:33:58;;;;;;;9.35;2.83;;;19.40;95.00;;;;;;5074791;28;20482;-55
2022/10/03 07:40:21;;;;;;;9.45;2.25;;;19.50;96.40;;;;;;5059309;28;20482;-55
2022/10/03 07:43:22;;;;;;;8.00;2.25;;;19.80;94.30;;;;;;5074300;28;20131;-55
2022/10/03 07:46:07;;;;;;;15.45;2.90;;;20.10;97.40;;;;;;5045674;28;20058;-55
2022/10/03 07:49:11;;;;;;;5.22;1.70;;;20.70;95.60;;;;;;5066499;28;20028;-55
2022/10/03 07:51:51;;;;;;;10.30;1.75;;;20.40;92.60;;;;;;5016978;28;20077;-55
2022/10/03 07:54:42;;;;;;;8.93;1.85;;;20.70;90.30;;;;;;5071684;28;20025;-55
2022/10/03 07:57:38;;;;;;;17.20;3.17;;;21.20;87.40;;;;;;5057726;28;20029;-55
2022/10/03 08:00:21;;;;;;;23.92;4.82;;;21.00;83.70;;;;;;5065107;28;20367;-55
2022/10/03 08:03:36;;;;;;;12.00;2.22;;;21.00;83.30;;;;;;5074312;28;20032;-55
2022/10/03 08:06:23;;;;;;;12.75;2.45;;;20.80;82.10;;;;;;5060125;28;20044;-55
2022/10/03 08:09:12;;;;;;;16.70;3.20;;;21.10;79.70;;;;;;5073315;28;20071;-55
2022/10/03 08:12:03;;;;;;;15.02;3.00;;;20.90;80.10;;;;;;5061390;28;20032;-55
2022/10/03 08:14:42;;;;;;;;;;;21.10;81.30;;;;;;5054522;28;20029;-55
2022/10/03 08:17:35;;;;;;;9.48;1.60;;;22.10;77.90;;;;;;5064882;28;19947;-56
2022/10/03 08:20:24;;;;;;;8.90;2.00;;;22.60;74.70;;;;;;5061847;28;20090;-55
2022/10/03 08:22:51;;;;;;;6.20;1.75;;;22.30;70.60;;;;;;5073778;28;20135;-55
2022/10/03 08:25:52;;;;;;;11.05;3.35;;;22.20;69.20;;;;;;5072415;28;20031;-56
2022/10/03 08:28:18;;;;;;;14.23;2.78;;;22.20;72.70;;;;;;5072672;28;20474;-56
2022/10/03 08:31:14;;;;;;;15.38;2.60;;;22.00;70.10;;;;;;5074501;28;20025;-55
2022/10/03 08:33:40;;;;;;;8.85;1.80;;;21.70;69.90;;;;;;5074917;28;20041;-56
2022/10/03 08:36:31;;;;;;;5.43;1.40;;;22.10;69.70;;;;;;5074129;28;20025;-55
2022/10/03 08:39:45;;;;;;;9.93;1.83;;;22.60;66.20;;;;;;5072066;28;20108;-56
2022/10/03 08:42:47;;;;;;;13.80;2.72;;;22.70;65.50;;;;;;5071966;28;20033;-56
2022/10/03 08:45:42;;;;;;;9.45;1.70;;;23.40;65.90;;;;;;5072559;28;20032;-56
2022/10/03 08:48:26;;;;;;;4.15;1.20;;;23.60;62.40;;;;;;5075608;28;20131;-56
2022/10/03 08:51:05;;;;;;;14.95;3.25;;;23.50;59.50;;;;;;5076656;28;20032;-56
2022/10/03 08:53:31;;;;;;;12.55;2.30;;;23.20;62.80;;;;;;5076394;28;20478;-55
2022/10/03 08:56:12;;;;;;;8.05;1.25;;;23.20;60.80;;;;;;5077572;28;20028;-56
2022/10/03 08:58:53;;;;;;;13.55;2.58;;;22.80;59.70;;;;;;5077056;28;20108;-55
2022/10/03 09:01:37;;;;;;;25.63;3.50;;;22.50;62.80;;;;;;5077262;28;20032;-56
2022/10/03 09:04:11;;;;;;;11.18;2.05;;;22.80;61.60;;;;;;5077219;28;20040;-56
2022/10/03 09:07:19;;;;;;;4.47;1.98;;;22.20;60.80;;;;;;5077122;28;20033;-56
2022/10/03 09:09:45;;;;;;;8.05;2.05;;;21.70;62.80;;;;;;5053403;28;20040;-56
2022/10/03 09:12:46;;;;;;;10.10;2.13;;;21.30;66.00;;;;;;5069861;28;20505;-56
2022/10/03 09:15:43;;;;;;;9.43;2.10;;;21.50;64.00;;;;;;5047760;28;20093;-56
2022/10/03 09:18:53;;;;;;;10.82;2.20;;;21.50;67.50;;;;;;5057103;28;20112;-55
2022/10/03 09:21:19;;;;;;;5.97;1.67;;;21.20;64.40;;;;;;5066780;28;20101;-56
2022/10/03 09:24:05;;;;;;;14.35;2.95;;;21.40;63.00;;;;;;5075562;28;20040;-55
2022/10/03 09:27:05;;;;;;;10.65;2.20;;;21.30;63.20;;;;;;5070283;28;20024;-55
2022/10/03 09:29:36;;;;;;;13.55;2.40;;;21.00;61.90;;;;;;5076264;28;20044;-55
2022/10/03 09:32:40;;;;;;;19.85;3.22;;;21.10;63.30;;;;;;5076898;28;20028;-55
2022/10/03 09:35:18;;;;;;;10.45;2.17;;;21.20;62.20;;;;;;5076323;28;20016;-55
2022/10/03 09:37:47;;;;;;;15.63;2.63;;;21.20;63.90;;;;;;5074964;28;20474;-55
2022/10/03 09:40:21;;;;;;;9.20;1.98;;;21.00;62.00;;;;;;5076733;28;20025;-55
2022/10/03 09:43:18;;;;;;;7.82;1.38;;;20.70;62.40;;;;;;5075555;28;20043;-55
2022/10/03 09:46:02;;;;;;;11.57;2.47;;;20.50;64.20;;;;;;5076457;28;20102;-56
2022/10/03 09:48:33;;;;;;;27.98;5.05;;;20.50;64.60;;;;;;5075868;28;20021;-55
2022/10/03 09:51:11;;;;;;;7.40;2.03;;;20.40;63.90;;;;;;5075577;28;20359;-55
2022/10/03 09:54:02;;;;;;;17.63;3.17;;;20.10;64.20;;;;;;5076099;28;20029;-55
2022/10/03 09:56:37;;;;;;;9.68;2.17;;;20.10;65.70;;;;;;5076378;28;20017;-55
2022/10/03 09:59:35;;;;;;;8.80;2.30;;;19.90;65.10;;;;;;5075038;28;20031;-55
2022/10/03 10:02:12;;;;;;;10.75;3.15;;;19.90;63.90;;;;;;5075936;28;20139;-55
2022/10/03 10:05:00;;;;;;;15.50;2.90;;;19.50;64.70;;;;;;5076777;28;20495;-55
2022/10/03 10:07:47;;;;;;;5.43;1.25;;;19.30;65.10;;;;;;5075966;28;20066;-55
2022/10/03 10:10:22;;;;;;;7.07;1.80;;;19.50;65.60;;;;;;5076156;28;20028;-55
2022/10/03 10:13:10;;;;;;;12.63;2.50;;;19.60;66.00;;;;;;5076148;28;20048;-55
2022/10/03 10:16:14;;;;;;;12.30;2.72;;;19.70;67.20;;;;;;5075981;28;20028;-55
2022/10/03 10:19:01;;;;;;;9.43;2.22;;;19.60;70.00;;;;;;5069307;28;20486;-55
2022/10/03 10:22:05;;;;;;;10.65;1.60;;;19.80;71.00;;;;;;5075496;28;20078;-55
2022/10/03 10:24:52;;;;;;;18.10;3.28;;;19.80;66.60;;;;;;5078792;28;20040;-55
2022/10/03 10:27:37;;;;;;;8.18;1.90;;;19.50;67.40;;;;;;5076312;28;20024;-55
2022/10/03 10:30:26;;;;;;;4.57;1.25;;;19.60;67.10;;;;;;5076429;28;20466;-55
2022/10/03 10:33:18;;;;;;;9.05;3.60;;;19.70;65.90;;;;;;5075572;28;20022;-55
2022/10/03 10:36:05;;;;;;;10.98;2.85;;;19.80;65.70;;;;;;5076504;28;20052;-55
2022/10/03 10:38:43;;;;;;;7.53;1.85;;;19.70;66.40;;;;;;5074621;28;20043;-55
2022/10/03 10:41:57;;;;;;;6.05;1.10;;;19.70;66.20;;;;;;5076418;28;20111;-55
2022/10/03 10:44:47;;;;;;;28.02;3.95;;;19.50;63.70;;;;;;5004424;28;20042;-55
2022/10/03 10:47:26;;;;;;;9.48;2.25;;;19.60;67.60;;;;;;5074765;28;20454;-55
2022/10/03 10:50:14;;;;;;;7.80;1.75;;;20.00;65.40;;;;;;5076118;28;20039;-55
2022/10/03 10:53:09;;;;;;;8.32;1.40;;;20.20;63.50;;;;;;5075988;28;20044;-55
2022/10/03 10:55:40;;;;;;;17.48;2.45;;;20.50;63.70;;;;;;5075966;28;20111;-55
2022/10/03 10:58:27;;;;;;;9.48;1.75;;;20.90;64.30;;;;;;5076117;28;20466;-55
2022/10/03 11:01:14;;;;;;;6.40;1.85;;;21.10;63.30;;;;;;5071914;28;20094;-55
2022/10/03 11:04:08;;;;;;;10.15;1.58;;;21.10;61.20;;;;;;5067007;28;20112;-55
2022/10/03 11:07:12;;;;;;;13.18;2.33;;;21.10;60.90;;;;;;5075726;28;20044;-55
2022/10/03 11:10:00;;;;;;;5.63;1.50;;;21.30;60.10;;;;;;5075068;28;20462;-55
2022/10/03 11:13:03;;;;;;;13.05;2.60;;;21.90;58.60;;;;;;5075033;28;20043;-55
2022/10/03 11:16:02;;;;;;;11.45;2.50;;;21.90;57.60;;;;;;5075176;28;20037;-55
2022/10/03 11:19:16;;;;;;;8.38;1.60;;;22.70;60.00;;;;;;5067980;28;20032;-55
2022/10/03 11:21:58;;;;;;;14.55;2.03;;;23.40;57.00;;;;;;5057615;28;20080;-55
2022/10/03 11:24:59;;;;;;;6.03;1.55;;;24.00;57.40;;;;;;5079015;28;20028;-55
2022/10/03 11:27:25;;;;;;;;;;;24.50;54.30;;;;;;5059985;28;20461;-56
2022/10/03 11:30:12;;;;;;;16.02;2.40;;;23.70;52.00;;;;;;5075168;28;20007;-56
2022/10/03 11:33:04;;;;;;;12.57;2.10;;;23.40;54.90;;;;;;5075099;28;20032;-56
2022/10/03 11:35:48;;;;;;;8.82;1.88;;;23.40;53.90;;;;;;5074627;28;20482;-56
2022/10/03 11:38:45;;;;;;;24.00;4.25;;;23.10;54.60;;;;;;5074501;28;20044;-55
2022/10/03 11:41:36;;;;;;;19.23;4.10;;;22.10;57.50;;;;;;5074433;28;20028;-55
2022/10/03 11:44:29;;;;;;;12.18;2.70;;;22.10;57.00;;;;;;5074425;28;20035;-55
2022/10/03 11:47:13;;;;;;;10.63;2.92;;;21.60;57.20;;;;;;5074315;28;20339;-55
2022/10/03 11:49:42;;;;;;;7.55;1.60;;;21.40;58.20;;;;;;5073912;28;20127;-55
2022/10/03 11:52:26;;;;;;;16.88;3.10;;;21.90;58.50;;;;;;5074466;28;20077;-55
2022/10/03 11:55:18;;;;;;;26.33;6.63;;;22.10;56.70;;;;;;5074444;28;20037;-55
2022/10/03 11:58:07;;;;;;;5.10;1.48;;;22.10;56.50;;;;;;5074157;28;20024;-55
2022/10/03 12:00:35;;;;;;;14.95;3.28;;;22.20;54.10;;;;;;5074154;28;20267;-55
2022/10/03 12:03:18;;;;;;;7.72;1.85;;;22.50;55.70;;;;;;5073270;28;20027;-55
2022/10/03 12:08:53;;;;;;;6.05;1.85;;;22.60;53.20;;;;;;5066974;28;20021;-55
2022/10/03 12:09:18;;;;;;;4.65;1.50;;;22.60;53.40;;;;;;5073459;28;20470;-55
2022/10/03 12:11:53;;;;;;;5.50;1.23;;;21.80;52.80;;;;;;5073443;28;20029;-56
2022/10/03 12:14:25;;;;;;;11.85;2.10;;;22.10;55.60;;;;;;5073966;28;20051;-56
2022/10/03 12:17:21;;;;;;;19.70;3.42;;;22.00;54.60;;;;;;5054328;28;20087;-56
2022/10/03 12:19:55;;;;;;;20.23;3.80;;;22.10;57.90;;;;;;5053978;28;20083;-55
2022/10/03 12:22:27;;;;;;;8.52;2.30;;;22.60;55.90;;;;;;5053514;28;20082;-55
2022/10/03 12:25:33;;;;;;;12.52;2.83;;;22.70;54.60;;;;;;5070152;28;20020;-55
2022/10/03 12:28:19;;;;;;;12.50;2.20;;;23.20;54.20;;;;;;5071904;28;20478;-55
2022/10/03 12:30:54;;;;;;;10.60;2.58;;;22.60;54.90;;;;;;5072342;28;20032;-55
2022/10/03 12:34:15;;;;;;;7.75;2.08;;;22.60;52.10;;;;;;5073828;28;20029;-55
2022/10/03 12:36:52;;;;;;;24.35;5.85;;;21.80;53.00;;;;;;5073358;28;20044;-56
2022/10/03 12:39:59;;;;;;;12.80;3.58;;;21.50;54.60;;;;;;5073700;28;20025;-55
2022/10/03 12:42:46;;;;;;;15.95;3.38;;;20.90;59.00;;;;;;5003203;28;20044;-55
2022/10/03 12:45:24;;;;;;;23.90;4.32;;;20.60;60.50;;;;;;5073897;28;20107;-56
2022/10/03 12:48:03;;;;;;;13.18;2.75;;;20.50;62.30;;;;;;5073641;28;20044;-55
2022/10/03 12:50:42;;;;;;;21.42;4.40;;;19.90;65.90;;;;;;5073691;28;20025;-55
2022/10/03 12:53:14;;;;;;;9.27;3.40;;;19.60;63.80;;;;;;5072799;28;20054;-55
2022/10/03 12:55:59;;;;;;;10.57;2.70;;;19.80;63.00;;;;;;5072933;28;20016;-55
2022/10/03 12:58:48;;;;;;;9.90;4.47;;;19.30;65.10;;;;;;5071596;28;20111;-55
2022/10/03 13:01:37;;;;;;;21.55;4.20;;;19.30;69.60;;;;;;5058104;28;20037;-55
2022/10/03 13:04:37;;;;;;;8.88;4.32;;;19.20;64.90;;;;;;5064028;28;20532;-55
2022/10/03 13:07:29;;;;;;;8.38;2.13;;;19.00;69.30;;;;;;5069852;28;20108;-55
2022/10/03 13:10:13;;;;;;;17.90;3.95;;;19.20;66.00;;;;;;5068842;28;20033;-55
2022/10/03 13:13:08;;;;;;;16.02;3.42;;;19.20;66.20;;;;;;5065806;28;20064;-55
2022/10/03 13:15:51;;;;;;;19.27;4.05;;;19.10;67.50;;;;;;5071724;28;20036;-55
2022/10/03 13:18:23;;;;;;;17.20;2.60;;;18.80;66.90;;;;;;5065766;28;20029;-55
2022/10/03 13:21:15;;;;;;;23.58;3.55;;;18.90;67.10;;;;;;5059061;28;20441;-55
2022/10/03 13:23:57;;;;;;;13.50;3.40;;;19.00;68.30;;;;;;5065532;28;20055;-55
2022/10/03 13:26:45;;;;;;;21.13;3.67;;;18.80;67.70;;;;;;5053601;28;20040;-55
2022/10/03 13:29:12;;;;;;;19.42;5.28;;;18.90;67.40;;;;;;5053565;28;20037;-55
2022/10/03 13:31:47;;;;;;;7.25;2.30;;;18.90;67.00;;;;;;5053385;28;20022;-55
2022/10/03 13:34:27;;;;;;;8.88;1.88;;;19.20;66.30;;;;;;5071310;28;20055;-55
2022/10/03 13:37:11;;;;;;;15.98;4.10;;;19.60;64.10;;;;;;5076956;28;20478;-55
2022/10/03 13:39:51;;;;;;;12.68;3.75;;;20.00;64.60;;;;;;5076956;28;20028;-55
2022/10/03 13:42:27;;;;;;;14.10;3.27;;;20.00;63.00;;;;;;5076861;28;20485;-55
2022/10/03 13:45:11;;;;;;;8.60;1.95;;;20.50;65.60;;;;;;5077188;28;20261;-55
2022/10/03 13:48:05;;;;;;;8.50;2.10;;;20.70;61.50;;;;;;5076857;28;20040;-55
2022/10/03 13:50:57;;;;;;;17.08;3.35;;;20.90;63.00;;;;;;5076703;28;20413;-55
2022/10/03 13:54:00;;;;;;;11.30;2.60;;;21.10;60.30;;;;;;5076899;28;20020;-55
2022/10/03 13:57:01;;;;;;;7.35;2.08;;;21.00;59.20;;;;;;5076811;28;20331;-55
2022/10/03 14:00:03;;;;;;;14.60;3.35;;;20.70;63.50;;;;;;5074767;28;20482;-55
2022/10/03 14:03:22;;;;;;;7.00;2.78;;;20.10;63.80;;;;;;5061780;28;20025;-55
2022/10/03 14:06:12;;;;;;;16.15;4.47;;;19.60;67.60;;;;;;5042488;28;20048;-55
2022/10/03 14:09:03;;;;;;;57.10;20.45;;;19.90;66.00;;;;;;5076346;28;20039;-55
2022/10/03 14:11:35;;;;;;;38.97;12.48;;;20.10;68.30;;;;;;5076596;28;20082;-55
2022/10/03 14:14:04;;;;;;;24.17;7.50;;;20.00;65.50;;;;;;5076559;28;20486;-55
2022/10/03 14:16:40;;;;;;;15.85;4.63;;;20.10;63.70;;;;;;5076231;28;20032;-55
2022/10/03 14:19:27;;;;;;;27.05;5.57;;;20.30;63.70;;;;;;5076087;28;20037;-55
2022/10/03 14:22:12;;;;;;;7.28;2.78;;;20.50;61.40;;;;;;5076246;28;20120;-55
2022/10/03 14:25:08;;;;;;;10.68;3.28;;;20.60;61.70;;;;;;5082474;28;20499;-55
2022/10/03 14:27:54;;;;;;;7.00;1.63;;;20.30;62.40;;;;;;5096350;28;20035;-55
2022/10/03 14:30:45;;;;;;;11.45;3.15;;;20.20;65.60;;;;;;5096375;28;20043;-55
2022/10/03 14:33:20;;;;;;;11.68;3.42;;;20.20;60.80;;;;;;5087978;28;20225;-55